Little Falls, New York
Current Conditions -  °F | °C
As of 2:55 PM on Saturday 25 Oct 2014 (Local Time) from KNY0 Reporting Station
Scattered Clouds Scattered Clouds  
Wind Chill: 59°   Ceiling: Unl
Heat Index: 59°   Visibility: 10mi
Dew Point: 45°   Wind: 12mph
Humidity: 58%   Direction: 230°SW
Pressure: 29.63"   Gusts: 21mph
Location:  43.04°N, 74.86°W
Report Text: KNY0 251855Z AUTO 23010G18KT 10SM SCT033 SCT040 15/07 A2963 RMK AO2 T01520071
Loading
Personal Weather Stations






























Interactive Weather Map
Tropical Storm Tracking
New forecast layout! Learn more

10-Day Weather Forecast

Advertisements
Track Severe Weather on mobile